| time (UTC) | temp F | wind direction | speed knots | gust knots | rain 1hr in | rain 24hr in | rain mn in | humidity % | barometer mb |
| 20260506143159 | 49 | 333 | 0.9 | 4.3 | 0.00 | 0.09 | 0.00 | 62 | 1010.9 |
| 20260506133006 | 47 | 50 | 0.0 | 3.5 | 0.00 | 0.09 | 0.00 | 71 | 1010.2 |
| 20260506131505 | 46 | 285 | 0.0 | 4.3 | 0.00 | 0.09 | 0.00 | 73 | 1010.1 |
| 20260506110156 | 43 | 336 | 0.0 | 1.7 | 0.00 | 0.09 | 0.00 | 71 | 1008.4 |
| 20260506104655 | 44 | 300 | 0.0 | 2.6 | 0.00 | 0.09 | 0.00 | 68 | 1008.4 |
| 20260506103023 | 45 | 283 | 0.9 | 3.5 | 0.00 | 0.09 | 0.00 | 66 | 1008.3 |
| 20260506091511 | 45 | 328 | 0.0 | 1.7 | 0.00 | 0.09 | 0.00 | 62 | 1007.9 |
| 20260506083005 | 46 | 309 | 0.0 | 2.6 | 0.00 | 0.09 | 0.00 | 60 | 1007.5 |
| 20260506081502 | 46 | 227 | 0.0 | 2.6 | 0.00 | 0.09 | 0.00 | 59 | 1007.4 |
| 20260506070152 | 47 | 290 | 0.0 | 3.5 | 0.00 | 0.09 | 0.00 | 57 | 1007.4 |
| 20260506050158 | 48 | 304 | 0.0 | 3.5 | 0.00 | 0.09 | 0.00 | 55 | 1007.6 |
| 20260506034507 | 48 | 296 | 0.0 | 2.6 | 0.00 | 0.17 | 0.17 | 55 | 1007.2 |
| 20260506014642 | 50 | 314 | 0.9 | 4.3 | 0.00 | 0.23 | 0.17 | 48 | 1007.0 |
| 20260506013015 | 50 | 264 | 0.9 | 6.1 | 0.00 | 0.23 | 0.17 | 46 | 1006.8 |
| 20260506010005 | 50 | 309 | 2.6 | 5.2 | 0.00 | 0.23 | 0.17 | 44 | 1006.7 |
| 20260506004641 | 51 | 297 | 0.9 | 4.3 | 0.00 | 0.23 | 0.17 | 45 | 1006.7 |
| 20260506003017 | 51 | 299 | 0.0 | 5.2 | 0.00 | 0.23 | 0.17 | 45 | 1006.7 |
| 20260505234645 | 52 | 299 | 0.9 | 3.5 | 0.00 | 0.24 | 0.17 | 51 | 1006.1 |
| 20260505233011 | 52 | 303 | 0.9 | 5.2 | 0.00 | 0.24 | 0.17 | 51 | 1006.0 |
| 20260505231508 | 52 | 293 | 1.7 | 5.2 | 0.00 | 0.24 | 0.17 | 51 | 1006.0 |
| 20260505230009 | 52 | 269 | 0.0 | 6.1 | 0.00 | 0.24 | 0.17 | 51 | 1006.0 |
| 20260505224505 | 53 | 268 | 0.9 | 6.1 | 0.00 | 0.24 | 0.17 | 49 | 1006.1 |
| 20260505223005 | 53 | 288 | 1.7 | 7.0 | 0.00 | 0.24 | 0.17 | 53 | 1006.0 |
| 20260505221503 | 53 | 264 | 3.5 | 9.6 | 0.00 | 0.24 | 0.17 | 55 | 1006.0 |
| 20260505214642 | 53 | 293 | 1.7 | 10.4 | 0.00 | 0.24 | 0.17 | 61 | 1006.0 |
| 20260505211503 | 53 | 284 | 0.9 | 7.8 | 0.00 | 0.24 | 0.17 | 69 | 1005.8 |
| 20260505180013 | 49 | 230 | 0.0 | 5.2 | 0.02 | 0.24 | 0.17 | 86 | 1005.5 |
| 20260505174509 | 48 | 236 | 0.9 | 4.3 | 0.03 | 0.24 | 0.17 | 88 | 1005.4 |